Seadream 1 — C6PW8 — position and weather

sailwx.info

Track history (hours):
 
Tides and Currents Weather Stations Pressure Air Temp Water Temp Dewpoint Dewpoint Depression Visibility Wind Speed Wind Dir Waves Ship Positions

Seadream 1

Last reported at 2014-Oct-21 01:34 UTC. Time now 2014-Oct-21 02:19 UTC.
Position N 43°08' E 006°45'.

Length 105 m; draft 4.4 m.

Type: Ship. MMSI: 308908000.

Date/timePositionNaut miles runAvg speedWind from/ knotsBaromVisibWave heightAir tempDewpointWater temp
2014-Oct-21 01:34N 43°08' E 006°45'1615.9
2014-Oct-21 00:34N 43°21' E 006°59'1615.6
2014-Oct-20 23:33N 43°33' E 007°13'16 4.8
2014-Oct-20 20:18N 43°44' E 007°27'0 0.0
2014-Oct-20 06:12N 43°44' E 007°27'4910.3
2014-Oct-20 01:26N 43°58' E 008°33'1011.1
2014-Oct-20 00:33N 44°03' E 008°44'1111.3
2014-Oct-19 23:33N 44°08' E 008°58'1312.7
2014-Oct-19 22:34N 44°15' E 009°13'4 4.0
2014-Oct-19 21:30N 44°19' E 009°14'0 0.0
2014-Oct-19 20:21N 44°19' E 009°14'0 0.0
2014-Oct-19 19:22N 44°19' E 009°14'0 0.0
2014-Oct-19 17:12N 44°19' E 009°14'0 0.0
2014-Oct-19 16:33N 44°19' E 009°14'0 0.0
2014-Oct-19 15:31N 44°19' E 009°14'0 0.0
2014-Oct-19 14:28N 44°19' E 009°14'0 0.0
2014-Oct-19 13:31N 44°19' E 009°14'0 0.0
2014-Oct-19 12:29N 44°19' E 009°14'0 0.0
2014-Oct-19 11:32N 44°19' E 009°14'0 0.0
2014-Oct-19 10:29N 44°19' E 009°14'0 0.0
2014-Oct-19 09:32N 44°19' E 009°14'0 0.2
2014-Oct-19 08:33N 44°19' E 009°14'9 9.0
2014-Oct-19 07:34N 44°11' E 009°20'10 9.9
2014-Oct-19 06:34N 44°01' E 009°25'1010.2
2014-Oct-19 05:33N 43°52' E 009°29'1010.3
2014-Oct-19 04:34N 43°42' E 009°35'1010.3
2014-Oct-19 03:34N 43°32' E 009°39'1110.9
2014-Oct-19 02:33N 43°22' E 009°45'1110.6
2014-Oct-19 01:34N 43°13' E 009°52'1110.6
2014-Oct-19 00:31N 43°04' E 009°60'1110.5
2014-Oct-18 23:27N 42°52' E 010°01'1210.3
2014-Oct-18 22:21N 42°41' E 010°06'1112.7
2014-Oct-18 21:29N 42°36' E 010°19'1613.8
2014-Oct-18 20:21N 42°30' E 010°38'1813.8
2014-Oct-18 19:05N 42°23' E 011°00'  
2014-Oct-15 17:20N 38°23' E 015°35'910.3
2014-Oct-15 16:25N 38°14' E 015°37'1414.5
2014-Oct-15 15:26N 38°00' E 015°32'  
2014-Oct-13 03:23N 37°55' E 023°12'4 1.9
2014-Oct-13 01:16N 37°51' E 023°10'7 9.9
2014-Oct-13 00:33N 37°45' E 023°15'9 8.5
2014-Oct-12 23:34N 37°39' E 023°23'10 9.8
2014-Oct-12 22:33N 37°37' E 023°35'17 1.0
2014-Oct-12 05:26N 37°21' E 023°27'3 0.9
2014-Oct-12 02:04N 37°22' E 023°23'2 2.8
2014-Oct-12 01:26N 37°23' E 023°26'19 2.7
2014-Oct-11 18:18N 37°35' E 023°44'6 7.7
2014-Oct-11 17:33N 37°40' E 023°41'7 7.1
2014-Oct-11 16:33N 37°47' E 023°38'8 8.2
2014-Oct-11 15:33N 37°55' E 023°37'2 1.6
2014-Oct-11 14:32N 37°56' E 023°38'0 0.0
2014-Oct-11 13:33N 37°56' E 023°38'0 0.0
2014-Oct-11 12:33N 37°56' E 023°38'0 0.0
2014-Oct-11 11:31N 37°56' E 023°38'0 0.0
2014-Oct-11 10:31N 37°56' E 023°38'0 0.0
2014-Oct-11 09:32N 37°56' E 023°38'0 0.0
2014-Oct-11 08:33N 37°56' E 023°38'0 0.0
2014-Oct-11 07:33N 37°56' E 023°38'0 0.0
2014-Oct-11 06:31N 37°56' E 023°38'0 0.0
2014-Oct-11 05:32N 37°56' E 023°38'0 0.0
2014-Oct-11 04:32N 37°56' E 023°38'1 1.5
2014-Oct-11 03:33N 37°56' E 023°36'4 3.5
2014-Oct-11 02:34N 37°52' E 023°38'  
Track history (hours):
 
Tides and Currents Weather Stations Pressure Air Temp Water Temp Dewpoint Dewpoint Depression Visibility Wind Speed Wind Dir Waves Ship Positions

Seadream 1

Last reported at 2014-Oct-21 01:34 UTC. Time now 2014-Oct-21 02:19 UTC.
Position N 43°08' E 006°45'.

Length 105 m; draft 4.4 m.

Type: Ship. MMSI: 308908000.

Date/timePositionNaut miles runAvg speedWind from/ knotsBaromVisibWave heightAir tempDewpointWater temp
2014-Oct-21 01:34N 43°08' E 006°45'1615.9
2014-Oct-21 00:34N 43°21' E 006°59'1615.6
2014-Oct-20 23:33N 43°33' E 007°13'16 4.8
2014-Oct-20 20:18N 43°44' E 007°27'0 0.0
2014-Oct-20 06:12N 43°44' E 007°27'4910.3
2014-Oct-20 01:26N 43°58' E 008°33'1011.1
2014-Oct-20 00:33N 44°03' E 008°44'1111.3
2014-Oct-19 23:33N 44°08' E 008°58'1312.7
2014-Oct-19 22:34N 44°15' E 009°13'4 4.0
2014-Oct-19 21:30N 44°19' E 009°14'0 0.0
2014-Oct-19 20:21N 44°19' E 009°14'0 0.0
2014-Oct-19 19:22N 44°19' E 009°14'0 0.0
2014-Oct-19 17:12N 44°19' E 009°14'0 0.0
2014-Oct-19 16:33N 44°19' E 009°14'0 0.0
2014-Oct-19 15:31N 44°19' E 009°14'0 0.0
2014-Oct-19 14:28N 44°19' E 009°14'0 0.0
2014-Oct-19 13:31N 44°19' E 009°14'0 0.0
2014-Oct-19 12:29N 44°19' E 009°14'0 0.0
2014-Oct-19 11:32N 44°19' E 009°14'0 0.0
2014-Oct-19 10:29N 44°19' E 009°14'0 0.0
2014-Oct-19 09:32N 44°19' E 009°14'0 0.2
2014-Oct-19 08:33N 44°19' E 009°14'9 9.0
2014-Oct-19 07:34N 44°11' E 009°20'10 9.9
2014-Oct-19 06:34N 44°01' E 009°25'1010.2
2014-Oct-19 05:33N 43°52' E 009°29'1010.3
2014-Oct-19 04:34N 43°42' E 009°35'1010.3
2014-Oct-19 03:34N 43°32' E 009°39'1110.9
2014-Oct-19 02:33N 43°22' E 009°45'1110.6
2014-Oct-19 01:34N 43°13' E 009°52'1110.6
2014-Oct-19 00:31N 43°04' E 009°60'1110.5
2014-Oct-18 23:27N 42°52' E 010°01'1210.3
2014-Oct-18 22:21N 42°41' E 010°06'1112.7
2014-Oct-18 21:29N 42°36' E 010°19'1613.8
2014-Oct-18 20:21N 42°30' E 010°38'1813.8
2014-Oct-18 19:05N 42°23' E 011°00'  
2014-Oct-15 17:20N 38°23' E 015°35'910.3
2014-Oct-15 16:25N 38°14' E 015°37'1414.5
2014-Oct-15 15:26N 38°00' E 015°32'  
2014-Oct-13 03:23N 37°55' E 023°12'4 1.9
2014-Oct-13 01:16N 37°51' E 023°10'7 9.9
2014-Oct-13 00:33N 37°45' E 023°15'9 8.5
2014-Oct-12 23:34N 37°39' E 023°23'10 9.8
2014-Oct-12 22:33N 37°37' E 023°35'17 1.0
2014-Oct-12 05:26N 37°21' E 023°27'3 0.9
2014-Oct-12 02:04N 37°22' E 023°23'2 2.8
2014-Oct-12 01:26N 37°23' E 023°26'19 2.7
2014-Oct-11 18:18N 37°35' E 023°44'6 7.7
2014-Oct-11 17:33N 37°40' E 023°41'7 7.1
2014-Oct-11 16:33N 37°47' E 023°38'8 8.2
2014-Oct-11 15:33N 37°55' E 023°37'2 1.6
2014-Oct-11 14:32N 37°56' E 023°38'0 0.0
2014-Oct-11 13:33N 37°56' E 023°38'0 0.0
2014-Oct-11 12:33N 37°56' E 023°38'0 0.0
2014-Oct-11 11:31N 37°56' E 023°38'0 0.0
2014-Oct-11 10:31N 37°56' E 023°38'0 0.0
2014-Oct-11 09:32N 37°56' E 023°38'0 0.0
2014-Oct-11 08:33N 37°56' E 023°38'0 0.0
2014-Oct-11 07:33N 37°56' E 023°38'0 0.0
2014-Oct-11 06:31N 37°56' E 023°38'0 0.0
2014-Oct-11 05:32N 37°56' E 023°38'0 0.0
2014-Oct-11 04:32N 37°56' E 023°38'1 1.5
2014-Oct-11 03:33N 37°56' E 023°36'4 3.5
2014-Oct-11 02:34N 37°52' E 023°38'  

Dump ship's entire track history